Pilot, VA

6:31 AM EDT on May 26, 2015 (GMT -0400)
Copper Hill | | Change Station
CLOSE
Current Station
Personal Weather Station
Location: Copper Hill, VA
Elevation: 2687 ft
Nearby Weather Stations

Elev 2687 ft 37.06 °N, 80.17 °W | Updated 3 minutes ago

Partly Cloudy
Partly Cloudy
59.9 °F
Feels Like 59.9 °F
N
1.1
Wind Variable Wind from NE

Today
High -- | Low -- °F
--% Chance of Precip.
Yesterday
High -- | Low -- °F
Precip. -- in
6:05 AM 8:30 PM
First Quarter, 57% visible
Pressure 30.32 in
Visibility 10.0 miles
Clouds Scattered Clouds 11000 ft
Dew Point 60 °F
Humidity 99%
Rainfall 0.00 in
Snow Depth Not available.
UV 0 out of 12
Pollen 7.90 out of 12
Air Quality Not available.
Flu Activity No Activity
METAR KBCB 261015Z AUTO 00000KT 10SM SCT110 14/13 A3032 RMK AO2 T01410130

More Conditions Fewer Conditions

Pressure 30.32 in
Visibility 10.0 miles
Clouds Scattered Clouds 11000 ft
Dew Point 60 °F
Humidity 99%
Rainfall 0.00 in
Snow Depth Not available.
UV 0 out of 12
Pollen 7.90 out of 12
Air Quality Not available.
Flu Activity No Activity
METAR KBCB 261015Z AUTO 00000KT 10SM SCT110 14/13 A3032 RMK AO2 T01410130

More Conditions Fewer Conditions

10-Day Weather Forecast

Almanac

Astronomy

May. 26, 2015 Rise Set
Actual Time
Civil Twilight
Nautical Twilight
Astronomical Twilight
Moon
Length of Visible Light
Length of Day
Tomorrow will be .
, % of the Moon is Illuminated

Today's Extremes

State Highs State Lows

Community

WunderPhotos

Upload Photos

1,824,305 photos uploaded!

WunderBlogs® & News

Nearby

Air Quality

  Air Quality AQ Index Pollutant
Not available.

Snow Depth

Station Depth Elevation

Earthquake Activity

City Distance Mag. Time & Date
Minimum magnitude displayed is 2.5.

Coastal Water Temperatures

Place Temperature

Stations

Nearby Weather Stations

Station Location Temp. Windchill Dew Point Humidity Wind Precip. Elev Updated Type